»·PEaware :: N1XC KSNA-KSNA

N1XC :: KSNA-KSNA

FLIGHT INFORMATION

Flight Status: Arrived
Operator: Privately registered:
United States
More flights under this callsign
Pilot: Adam S. (8156)
Aircraft: CESSNA 172 SKYHAWK
(C172)
More flights by this aircraft type
Origin: KSNA John Wayne-Orange Co
United States
Destination: KSNA John Wayne-Orange Co
United States
More flights between these airports :: More routes between these airports
Route: +SLI
File this flight plan on PilotEdge
Remarks: I-1 Rating
Altitude:
(Current/Filed)
4,000ft
Speed:
(Current/Filed)
125kts
Departed: 04-Feb-18 03:56 PM
Arrived: 04-Feb-18 04:23 PM
Distance/Time
Traveled:
0nm/0:27
Distance/Time
To Go:
Arrived

Flight Plot

Page will automatically refresh every two minutes.


Map Options




Map Legend


Flown Route
Filed Route
Departure Airport
Arrival Airport
Navaid (VOR, NDB)
Fix

Horizontal Profiles

Position Reports

Time Latitude Longitude Heading Altitude Ground
Speed
04-Feb-18 15:45 33.671520 -117.867198 26 60ft 0kts
04-Feb-18 15:46 33.671520 -117.867198 26 60ft 0kts
04-Feb-18 15:47 33.671520 -117.867198 26 60ft 0kts
04-Feb-18 15:48 33.671520 -117.867198 26 60ft 0kts
04-Feb-18 15:49 33.671520 -117.867198 26 60ft 0kts
04-Feb-18 15:50 33.671520 -117.867198 26 60ft 0kts
04-Feb-18 15:51 33.671520 -117.867198 26 60ft 0kts
04-Feb-18 15:52 33.671520 -117.867198 26 60ft 0kts
04-Feb-18 15:53 33.671520 -117.867198 26 60ft 0kts
04-Feb-18 15:54 33.671520 -117.867198 26 60ft 0kts
04-Feb-18 15:55 33.671520 -117.867198 26 60ft 0kts
04-Feb-18 15:56 33.671520 -117.867198 26 60ft 0kts
04-Feb-18 15:57 33.671520 -117.867198 26 60ft 0kts
04-Feb-18 15:58 33.672234 -117.867901 5 60ft 9kts
04-Feb-18 15:59 33.675080 -117.866447 26 60ft 13kts
04-Feb-18 16:00 33.678401 -117.864338 26 60ft 11kts
04-Feb-18 16:01 33.679927 -117.863545 300 60ft 0kts
04-Feb-18 16:01 33.680048 -117.864096 246 60ft 12kts
04-Feb-18 16:02 33.668197 -117.875685 229 795ft 67kts
04-Feb-18 16:04 33.653156 -117.897771 230 1957ft 75kts
04-Feb-18 16:05 33.640062 -117.917081 230 2915ft 77kts
04-Feb-18 16:05 33.631225 -117.942042 292 2969ft 122kts
04-Feb-18 16:06 33.664027 -117.940329 21 2975ft 136kts
04-Feb-18 16:07 33.698345 -117.922286 21 2975ft 134kts
04-Feb-18 16:08 33.732510 -117.904388 21 2975ft 133kts
04-Feb-18 16:09 33.766405 -117.886976 21 2975ft 132kts
04-Feb-18 16:10 33.800295 -117.869559 21 2975ft 132kts
04-Feb-18 16:11 33.833426 -117.849828 31 2975ft 134kts
04-Feb-18 16:12 33.865043 -117.825696 31 2976ft 134kts
04-Feb-18 16:13 33.896917 -117.801367 31 2976ft 136kts
04-Feb-18 16:14 33.929140 -117.775512 31 2976ft 141kts
04-Feb-18 16:15 33.961537 -117.748710 43 2972ft 142kts
04-Feb-18 16:16 33.965924 -117.702641 91 2976ft 141kts
04-Feb-18 16:17 33.965971 -117.655404 91 2976ft 141kts
04-Feb-18 16:18 33.943542 -117.638596 219 2974ft 122kts
04-Feb-18 16:19 33.917440 -117.665088 221 2976ft 123kts
04-Feb-18 16:20 33.891348 -117.691774 223 2975ft 123kts
04-Feb-18 16:21 33.869619 -117.723346 231 2976ft 122kts
04-Feb-18 16:22 33.848198 -117.755267 231 2976ft 122kts
04-Feb-18 16:23 33.819851 -117.777462 208 2964ft 125kts
04-Feb-18 16:24 33.786663 -117.796767 212 2477ft 134kts
04-Feb-18 16:25 33.755118 -117.819945 211 1759ft 128kts
04-Feb-18 16:26 33.724517 -117.838089 207 998ft 118kts
04-Feb-18 16:27 33.699147 -117.854017 209 476ft 83kts
04-Feb-18 16:28 33.682284 -117.864657 209 101ft 61kts
04-Feb-18 16:29 33.678096 -117.868405 284 60ft 0kts
04-Feb-18 16:30 33.678096 -117.868405 284 60ft 0kts
04-Feb-18 16:31 33.675715 -117.870642 244 60ft 14kts
04-Feb-18 16:32 33.675512 -117.871468 216 60ft 0kts
04-Feb-18 16:33 33.675512 -117.871468 216 60ft 0kts
04-Feb-18 16:34 33.675512 -117.871468 216 60ft 0kts

Navigation Log

Ident Type
Flight plan parsing failed, navigation log unavailable